createdAt,value
2023-03-04T04:00:18.368Z,18.17
2023-03-04T04:02:46.411Z,19.17
2023-03-04T04:05:15.363Z,18.63
2023-03-04T04:07:43.411Z,19.13
2023-03-04T04:10:12.476Z,21.27
2023-03-04T04:12:40.522Z,19.63
2023-03-04T04:15:11.565Z,20.03
2023-03-04T04:17:41.075Z,20.33
2023-03-04T04:20:10.470Z,20.60
2023-03-04T04:22:38.312Z,20.30
2023-03-04T04:25:08.762Z,20.67
2023-03-04T04:27:36.661Z,20.37
2023-03-04T04:30:05.828Z,19.97
2023-03-04T04:32:33.949Z,19.77
2023-03-04T04:35:03.186Z,20.27
2023-03-04T04:37:31.203Z,19.90
2023-03-04T04:39:59.002Z,20.47
2023-03-04T04:42:28.468Z,20.07
2023-03-04T04:44:57.257Z,20.07
2023-03-04T04:47:25.184Z,20.33
2023-03-04T04:49:53.045Z,19.47
2023-03-04T04:52:22.220Z,20.23
2023-03-04T04:54:50.056Z,19.73
2023-03-04T04:57:17.882Z,18.67
2023-03-04T04:59:45.735Z,18.43
2023-03-04T05:02:13.687Z,19.37
2023-03-04T05:04:41.529Z,19.00
2023-03-04T05:07:09.424Z,17.03
2023-03-04T05:09:38.602Z,18.27
2023-03-04T05:12:06.637Z,18.13
2023-03-04T05:14:34.524Z,18.17
2023-03-04T05:17:03.409Z,18.77
2023-03-04T05:19:31.235Z,17.53
2023-03-04T05:21:59.045Z,17.63
2023-03-04T05:24:26.920Z,18.20
2023-03-04T05:26:58.157Z,17.33
2023-03-04T05:29:25.998Z,18.13
2023-03-04T05:31:54.043Z,16.93
2023-03-04T05:34:21.874Z,17.97
2023-03-04T05:36:49.740Z,17.60
2023-03-04T05:39:17.777Z,17.50
2023-03-04T05:41:45.596Z,18.27
2023-03-04T05:44:14.769Z,17.43
2023-03-04T05:46:42.630Z,15.70
2023-03-04T05:49:10.635Z,16.67
2023-03-04T05:51:38.461Z,14.80
2023-03-04T05:54:06.296Z,16.93
2023-03-04T05:56:34.137Z,16.47
2023-03-04T05:59:01.975Z,17.27
2023-03-04T06:01:31.308Z,16.47
2023-03-04T06:03:59.233Z,16.23
2023-03-04T06:06:27.098Z,16.23
2023-03-04T06:08:55.095Z,16.37
2023-03-04T06:11:22.906Z,15.70
2023-03-04T06:13:50.788Z,16.10
2023-03-04T06:16:18.643Z,15.40
2023-03-04T06:18:48.992Z,15.33
2023-03-04T06:21:16.829Z,14.40
2023-03-04T06:23:45.154Z,16.80
2023-03-04T06:26:15.408Z,17.40
2023-03-04T06:28:43.461Z,14.67
2023-03-04T06:31:11.470Z,14.80
2023-03-04T06:33:39.480Z,14.30
2023-03-04T06:36:09.401Z,15.17
2023-03-04T06:38:37.337Z,13.73
2023-03-04T06:41:09.306Z,14.00
2023-03-04T06:43:37.743Z,13.60
2023-03-04T06:46:05.994Z,13.33
2023-03-04T06:48:33.868Z,14.63
2023-03-04T06:51:08.298Z,15.63
2023-03-04T06:53:37.471Z,16.13
2023-03-04T06:56:06.113Z,13.57
2023-03-04T06:58:34.281Z,13.40
2023-03-04T07:01:14.372Z,13.93
2023-03-04T07:03:42.587Z,14.70
2023-03-04T07:06:13.620Z,14.40
2023-03-04T07:08:41.538Z,15.10
2023-03-04T07:11:09.573Z,12.73
2023-03-04T07:13:38.422Z,14.63
2023-03-04T07:16:07.434Z,13.00
2023-03-04T07:18:35.314Z,12.83
2023-03-04T07:21:03.386Z,13.33
2023-03-04T07:23:32.737Z,13.13
2023-03-04T07:26:00.617Z,12.97
2023-03-04T07:28:28.697Z,12.93
2023-03-04T07:30:56.542Z,13.20
2023-03-04T07:33:24.364Z,14.03
2023-03-04T07:35:59.985Z,13.87
2023-03-04T07:38:27.854Z,13.83
2023-03-04T07:40:58.728Z,12.60
2023-03-04T07:43:26.963Z,12.33
2023-03-04T07:46:00.154Z,13.70
2023-03-04T07:48:28.163Z,13.23
2023-03-04T07:51:08.314Z,11.63
2023-03-04T07:53:37.217Z,10.93
2023-03-04T07:56:08.192Z,11.23
2023-03-04T07:58:36.072Z,12.67
2023-03-04T08:01:10.554Z,12.10
2023-03-04T08:03:38.562Z,11.80
2023-03-04T08:06:07.628Z,11.10
2023-03-04T08:08:35.725Z,11.97
2023-03-04T08:11:06.840Z,12.90
2023-03-04T08:13:35.525Z,11.97
2023-03-04T08:16:03.569Z,11.13
2023-03-04T08:18:31.488Z,11.97
2023-03-04T08:20:59.328Z,12.60
2023-03-04T08:23:27.238Z,12.47
2023-03-04T08:25:55.435Z,11.80
2023-03-04T08:28:27.825Z,11.17
2023-03-04T08:30:56.689Z,10.90
2023-03-04T08:33:25.759Z,12.00
2023-03-04T08:35:54.321Z,11.97
2023-03-04T08:38:22.159Z,11.47
2023-03-04T08:40:54.155Z,11.43
2023-03-04T08:43:21.998Z,11.23
2023-03-04T08:45:51.898Z,11.77
2023-03-04T08:48:20.106Z,10.83
2023-03-04T08:50:48.824Z,11.87
2023-03-04T08:53:17.557Z,10.97
2023-03-04T08:55:45.910Z,11.00
2023-03-04T08:58:14.443Z,10.43
2023-03-04T09:00:44.707Z,9.17
2023-03-04T09:03:14.130Z,9.57
2023-03-04T09:05:42.228Z,10.20
2023-03-04T09:08:10.061Z,10.00
2023-03-04T09:10:41.207Z,10.30
2023-03-04T09:13:11.285Z,9.80
2023-03-04T09:15:44.507Z,9.60
2023-03-04T09:18:14.130Z,9.53
2023-03-04T09:20:42.183Z,8.47
2023-03-04T09:23:10.425Z,8.67
2023-03-04T09:25:38.802Z,9.07
2023-03-04T09:28:07.722Z,9.43
2023-03-04T09:30:36.115Z,8.83
2023-03-04T09:33:04.135Z,9.07
2023-03-04T09:35:33.426Z,9.20
2023-03-04T09:38:01.430Z,8.73
2023-03-04T09:40:33.310Z,8.87
2023-03-04T09:43:05.185Z,8.07
2023-03-04T09:45:39.034Z,9.23
2023-03-04T09:48:07.996Z,8.97
2023-03-04T09:50:43.215Z,9.47
2023-03-04T09:53:21.901Z,7.77
2023-03-04T09:55:52.208Z,8.50
2023-03-04T09:58:33.697Z,8.50
2023-03-04T10:01:08.479Z,8.17
2023-03-04T10:03:44.636Z,8.43
2023-03-04T10:06:17.773Z,8.40
2023-03-04T10:08:51.029Z,7.20
2023-03-04T10:11:24.771Z,6.90
2023-03-04T10:14:04.617Z,8.20
2023-03-04T10:16:39.035Z,7.30
2023-03-04T10:19:30.912Z,7.87
2023-03-04T10:22:00.471Z,7.40
2023-03-04T10:24:30.318Z,7.73
2023-03-04T10:27:05.196Z,7.00
2023-03-04T10:29:34.514Z,6.70
2023-03-04T10:32:02.497Z,7.10
2023-03-04T10:34:30.490Z,6.90
2023-03-04T10:37:02.675Z,6.40
2023-03-04T10:39:33.652Z,6.77
2023-03-04T10:42:03.524Z,6.73
2023-03-04T10:44:33.752Z,7.27
2023-03-04T10:47:02.187Z,7.97
2023-03-04T10:49:30.740Z,6.33
2023-03-04T10:52:15.888Z,6.77
2023-03-04T10:54:49.735Z,7.20
2023-03-04T10:57:19.948Z,7.47
2023-03-04T10:59:50.530Z,7.47
2023-03-04T11:02:23.019Z,7.13
2023-03-04T11:04:53.550Z,6.77
2023-03-04T11:07:24.305Z,9.90
2023-03-04T11:09:52.562Z,5.77
2023-03-04T11:12:22.717Z,6.17
2023-03-04T11:14:53.069Z,7.93
2023-03-04T11:17:25.043Z,5.80
2023-03-04T11:19:58.234Z,6.63
2023-03-04T11:22:30.123Z,5.60
2023-03-04T11:25:01.284Z,8.70
2023-03-04T11:27:41.120Z,8.80
2023-03-04T11:30:26.553Z,8.77
2023-03-04T11:32:57.714Z,9.33
2023-03-04T11:35:29.818Z,14.40
2023-03-04T11:38:05.158Z,7.87
2023-03-04T11:40:40.059Z,5.70
2023-03-04T11:43:15.001Z,5.97
2023-03-04T11:45:59.439Z,5.97
2023-03-04T11:48:40.992Z,5.33
2023-03-04T11:51:14.596Z,6.47
2023-03-04T11:53:54.401Z,5.73
2023-03-04T11:56:33.590Z,7.57
2023-03-04T11:59:35.849Z,7.00
2023-03-04T12:02:14.242Z,5.13
2023-03-04T12:05:02.628Z,5.67
2023-03-04T12:07:47.339Z,7.43
2023-03-04T12:10:26.751Z,7.60
2023-03-04T12:13:11.464Z,7.00
2023-03-04T12:15:48.450Z,6.43
2023-03-04T12:18:35.130Z,13.27
2023-03-04T12:21:29.773Z,5.77
2023-03-04T12:24:15.977Z,6.03
2023-03-04T12:26:52.963Z,6.82
2023-03-04T12:29:30.512Z,5.97
2023-03-04T12:32:04.665Z,5.73
2023-03-04T12:34:39.077Z,6.00
2023-03-04T12:37:28.541Z,5.47
2023-03-04T12:40:20.911Z,4.87
2023-03-04T12:43:08.661Z,5.37
2023-03-04T12:45:45.095Z,8.07
2023-03-04T12:48:26.832Z,5.33
2023-03-04T12:51:06.497Z,5.70
2023-03-04T12:53:41.884Z,6.50
2023-03-04T12:56:22.508Z,5.13
2023-03-04T12:58:52.306Z,5.93
2023-03-04T13:01:25.722Z,5.17
2023-03-04T13:04:03.094Z,5.00
2023-03-04T13:06:41.387Z,5.40
2023-03-04T13:09:17.472Z,5.20
2023-03-04T13:11:54.821Z,5.47
2023-03-04T13:14:30.471Z,5.80
2023-03-04T13:17:01.654Z,5.73
2023-03-04T13:19:51.272Z,4.70
2023-03-04T13:22:36.431Z,5.40
2023-03-04T13:25:31.348Z,5.13
2023-03-04T13:28:32.702Z,6.00
2023-03-04T13:31:16.581Z,5.27
2023-03-04T13:33:59.582Z,7.00
2023-03-04T13:36:57.224Z,6.17
2023-03-04T13:39:31.405Z,5.87
2023-03-04T13:42:00.418Z,4.80
2023-03-04T13:44:57.496Z,7.55
2023-03-04T13:47:47.067Z,6.00
2023-03-04T13:50:37.876Z,4.83
2023-03-04T13:53:46.444Z,5.07
2023-03-04T13:56:23.368Z,4.60
2023-03-04T13:58:53.294Z,5.53
2023-03-04T14:01:27.108Z,5.07
2023-03-04T14:03:56.583Z,5.40
2023-03-04T14:06:25.525Z,5.30
2023-03-04T14:08:54.658Z,5.50
2023-03-04T14:11:32.376Z,5.10
2023-03-04T14:14:04.606Z,5.50
2023-03-04T14:16:38.367Z,5.10
2023-03-04T14:19:14.225Z,4.93
2023-03-04T14:21:46.200Z,4.70
2023-03-04T14:24:20.040Z,5.20
2023-03-04T14:26:48.699Z,5.30
2023-03-04T14:29:26.916Z,5.67
2023-03-04T14:31:55.421Z,5.87
2023-03-04T14:34:31.981Z,5.63
2023-03-04T14:37:00.147Z,5.73
2023-03-04T14:39:31.102Z,5.50
2023-03-04T14:42:03.247Z,7.20
2023-03-04T14:44:36.139Z,6.30
2023-03-04T14:47:16.935Z,6.07
2023-03-04T14:49:46.642Z,7.40
2023-03-04T14:52:34.352Z,6.47
2023-03-04T14:55:17.258Z,7.72
2023-03-04T14:57:47.045Z,7.00
2023-03-04T15:00:26.082Z,6.87
2023-03-04T15:02:55.739Z,6.07
2023-03-04T15:05:29.094Z,6.70
2023-03-04T15:07:58.953Z,7.00
2023-03-04T15:10:29.263Z,6.33
2023-03-04T15:13:00.874Z,6.97
2023-03-04T15:15:36.298Z,6.20
2023-03-04T15:18:05.806Z,7.57
2023-03-04T15:20:35.090Z,6.50
2023-03-04T15:23:07.092Z,6.37
2023-03-04T15:25:36.386Z,6.13
2023-03-04T15:28:05.160Z,5.77
2023-03-04T15:30:34.871Z,5.78
2023-03-04T15:33:02.781Z,5.80
2023-03-04T15:35:32.771Z,6.27
2023-03-04T15:38:02.372Z,6.13
2023-03-04T15:40:33.718Z,5.27
2023-03-04T15:43:03.592Z,5.70
2023-03-04T15:45:35.875Z,5.85
2023-03-04T15:48:07.768Z,5.83
2023-03-04T15:50:37.593Z,5.20
2023-03-04T15:53:09.427Z,4.90
2023-03-04T15:55:37.826Z,6.10
2023-03-04T15:58:05.866Z,8.23
2023-03-04T16:00:34.558Z,6.80
2023-03-04T16:03:02.379Z,5.40
2023-03-04T16:05:30.641Z,5.87
2023-03-04T16:07:58.701Z,5.80
2023-03-04T16:10:29.687Z,5.33
2023-03-04T16:12:57.733Z,5.17
2023-03-04T16:15:27.569Z,5.07
2023-03-04T16:17:55.933Z,5.30
2023-03-04T16:20:26.707Z,6.00
2023-03-04T16:22:57.267Z,6.23
2023-03-04T16:25:27.181Z,6.13
2023-03-04T16:27:56.437Z,5.97
2023-03-04T16:30:26.323Z,6.23
2023-03-04T16:32:54.537Z,5.90
2023-03-04T16:35:25.258Z,6.00
2023-03-04T16:37:53.510Z,6.53
2023-03-04T16:40:24.681Z,6.10
2023-03-04T16:42:53.869Z,6.17
2023-03-04T16:45:23.901Z,6.33
2023-03-04T16:47:51.996Z,6.50
2023-03-04T16:50:24.905Z,6.27
2023-03-04T16:52:52.804Z,5.90
2023-03-04T16:55:23.251Z,6.13
2023-03-04T16:57:53.128Z,6.17
2023-03-04T17:00:23.053Z,6.20
2023-03-04T17:02:57.949Z,6.00
2023-03-04T17:05:28.136Z,9.67
2023-03-04T17:07:56.025Z,9.13
2023-03-04T17:10:24.053Z,6.87
2023-03-04T17:12:53.331Z,6.90
2023-03-04T17:15:21.573Z,6.07
2023-03-04T17:17:49.404Z,5.53
2023-03-04T17:20:19.087Z,5.97
2023-03-04T17:22:46.988Z,6.30
2023-03-04T17:25:15.382Z,6.37
2023-03-04T17:27:43.876Z,6.20
2023-03-04T17:30:15.917Z,7.27
2023-03-04T17:32:43.771Z,6.50
2023-03-04T17:35:12.264Z,7.27
2023-03-04T17:37:40.572Z,6.83
2023-03-04T17:40:13.894Z,7.20
2023-03-04T17:42:42.165Z,7.43
2023-03-04T17:45:13.219Z,6.67
2023-03-04T17:47:41.994Z,6.80
2023-03-04T17:50:11.250Z,6.83
2023-03-04T17:52:39.117Z,6.73
2023-03-04T17:55:08.177Z,7.63
2023-03-04T17:57:37.522Z,7.70
2023-03-04T18:00:06.238Z,6.60
2023-03-04T18:02:35.410Z,7.00
2023-03-04T18:05:06.592Z,6.23
2023-03-04T18:07:34.765Z,6.40
2023-03-04T18:10:02.799Z,6.83
2023-03-04T18:12:30.702Z,6.13
2023-03-04T18:14:58.952Z,6.00
2023-03-04T18:17:27.470Z,5.73
2023-03-04T18:19:57.557Z,6.43
2023-03-04T18:22:25.459Z,6.30
2023-03-04T18:24:53.662Z,5.90
2023-03-04T18:27:21.675Z,5.87
2023-03-04T18:29:49.868Z,5.17
2023-03-04T18:32:17.853Z,5.50
2023-03-04T18:34:45.821Z,5.97
2023-03-04T18:37:15.150Z,5.07
2023-03-04T18:39:43.044Z,6.03
2023-03-04T18:42:11.141Z,6.20
2023-03-04T18:44:39.164Z,5.83
2023-03-04T18:47:07.587Z,6.73
2023-03-04T18:49:35.595Z,6.03
2023-03-04T18:52:03.447Z,5.30
2023-03-04T18:54:32.634Z,5.00
2023-03-04T18:57:04.783Z,5.90
2023-03-04T18:59:38.729Z,6.17
2023-03-04T19:02:11.685Z,5.60
2023-03-04T19:04:39.579Z,5.73
2023-03-04T19:07:07.393Z,6.40
2023-03-04T19:09:36.597Z,5.27
2023-03-04T19:12:06.471Z,5.53
2023-03-04T19:14:34.366Z,6.10
2023-03-04T19:17:02.252Z,5.83
2023-03-04T19:19:30.220Z,5.60
2023-03-04T19:21:58.327Z,5.77
2023-03-04T19:24:26.394Z,6.50
2023-03-04T19:26:55.593Z,5.97
2023-03-04T19:29:23.425Z,5.47
2023-03-04T19:31:51.425Z,5.60
2023-03-04T19:34:19.254Z,5.70
2023-03-04T19:36:47.098Z,4.87
2023-03-04T19:39:18.321Z,5.60
2023-03-04T19:41:46.201Z,5.57
2023-03-04T19:44:15.396Z,5.23
2023-03-04T19:46:43.281Z,5.80
2023-03-04T19:49:11.346Z,5.40
2023-03-04T19:51:39.331Z,5.50
2023-03-04T19:54:07.708Z,5.77
2023-03-04T19:56:35.543Z,5.70
2023-03-04T19:59:03.662Z,5.53
2023-03-04T20:01:34.848Z,5.30
2023-03-04T20:04:05.109Z,6.33
2023-03-04T20:06:32.990Z,5.70
2023-03-04T20:09:01.965Z,5.40
2023-03-04T20:11:31.122Z,5.50
2023-03-04T20:13:59.480Z,5.63
2023-03-04T20:16:27.473Z,5.30
2023-03-04T20:18:57.894Z,5.80
2023-03-04T20:21:25.957Z,5.50
2023-03-04T20:23:53.859Z,5.77
2023-03-04T20:26:21.687Z,5.73
2023-03-04T20:28:52.892Z,6.23
2023-03-04T20:31:22.617Z,6.00
2023-03-04T20:33:51.645Z,6.00
2023-03-04T20:36:22.491Z,6.20
2023-03-04T20:38:57.990Z,6.03
2023-03-04T20:41:29.604Z,6.13
2023-03-04T20:43:57.563Z,6.60
2023-03-04T20:46:26.813Z,6.17
2023-03-04T20:48:55.158Z,6.43
2023-03-04T20:51:26.120Z,6.80
2023-03-04T20:53:55.273Z,7.73
2023-03-04T20:56:24.147Z,7.10
2023-03-04T20:58:52.395Z,8.07
2023-03-04T21:01:20.450Z,8.10
2023-03-04T21:03:50.239Z,7.83
2023-03-04T21:06:18.087Z,7.83
2023-03-04T21:08:47.260Z,7.93
2023-03-04T21:11:16.674Z,8.07
2023-03-04T21:13:45.271Z,8.10
2023-03-04T21:16:15.158Z,8.00
2023-03-04T21:18:44.643Z,8.27
2023-03-04T21:21:14.104Z,8.43
2023-03-04T21:23:42.512Z,8.40
2023-03-04T21:26:11.703Z,9.83
2023-03-04T21:28:39.561Z,9.20
2023-03-04T21:31:11.305Z,9.03
2023-03-04T21:33:39.253Z,9.27
2023-03-04T21:36:07.636Z,9.40
2023-03-04T21:38:35.816Z,9.00
2023-03-04T21:41:04.997Z,7.33
2023-03-04T21:43:34.240Z,6.73
2023-03-04T21:46:02.114Z,7.23
2023-03-04T21:48:29.950Z,7.37
2023-03-04T21:51:02.571Z,6.27
2023-03-04T21:53:30.401Z,6.43
2023-03-04T21:55:58.588Z,8.47
2023-03-04T21:58:26.483Z,8.30
2023-03-04T22:00:56.986Z,8.10
2023-03-04T22:03:27.068Z,7.23
2023-03-04T22:05:54.888Z,7.50
2023-03-04T22:08:22.755Z,7.33
2023-03-04T22:10:50.671Z,8.03
2023-03-04T22:13:18.527Z,7.47
2023-03-04T22:15:47.661Z,8.33
2023-03-04T22:18:16.853Z,8.20
2023-03-04T22:20:45.187Z,7.67
2023-03-04T22:23:13.617Z,8.03
2023-03-04T22:25:43.047Z,7.90
2023-03-04T22:28:10.884Z,8.37
2023-03-04T22:30:38.706Z,9.13
2023-03-04T22:33:06.638Z,8.23
2023-03-04T22:35:39.741Z,7.80
2023-03-04T22:38:07.678Z,8.37
2023-03-04T22:40:35.523Z,8.87
2023-03-04T22:43:03.680Z,8.50
2023-03-04T22:45:32.859Z,8.30
2023-03-04T22:48:01.084Z,8.40
2023-03-04T22:50:29.369Z,8.00
2023-03-04T22:52:58.746Z,7.63
2023-03-04T22:55:26.676Z,7.87
2023-03-04T22:57:54.537Z,7.57
2023-03-04T23:00:24.214Z,7.30
